Latest Coastal Weather Observations for Norfolk Island

IDN60701

Issued at 8:22 am EST Tuesday 23 April 2024 (issued every 10 minutes, with the page automatically refreshed every 10 minutes)

About coastal observations | Map of coastal stations | Coastal observations for NSW | Marine services | Other Formats
Station Details ID: 200288 Name: NORFOLK ISLAND AERO Lat: -29.04 Lon: 167.94 Height: 111.73 m
Data from the previous 72 hours. | See also: Recent months at Norfolk Island

Observations are collected in the New South Wales time zone (Eastern Standard Time) which includes daylight savings in the summer period. Therefore 'Rain since 9am' totals and other values are based on the New South Wales time zone, which may differ from local time.

Date/Time
EST
Wind Sea
Height
m
Swell Vis
km
Cloud Weather Temp
°C
Press
MSL
hPa
Rain since
9am
mm
Dir  Spd
kts
Gust
kts
Height
m
Period
s
Dir
23/08:00am ESE 13 21 - - - - 10 Mostly cloudy - 21.4 1021.0 2.0
23/07:30am ESE 13 21 - - - - 10 Partly cloudy - 20.8 1020.6 2.0
23/07:00am ESE 12 17 - - - - 10 Partly cloudy - 20.2 1020.7 2.0
23/06:30am ESE 11 16 - - - - 10 Partly cloudy - 19.6 1020.2 2.0
23/06:00am SE 13 19 - - - - 10 Partly cloudy - 19.0 1019.9 2.0
23/05:30am ESE 13 22 - - - - 10 Partly cloudy - 19.5 1019.4 2.0
23/05:00am ESE 11 18 - - - - 10 Cloudy - 19.4 1019.2 2.0
23/04:30am ESE 11 19 - - - - 10 Partly cloudy - 19.2 1018.7 2.0
23/04:00am SE 12 19 - - - - 10 Partly cloudy - 19.7 1018.3 2.0
23/03:30am ESE 11 18 - - - - 10 Partly cloudy - 19.7 1018.1 2.0
23/03:00am SE 11 18 - - - - 10 Partly cloudy - 19.6 1018.1 2.0
23/02:30am ESE 11 17 - - - - 10 Partly cloudy - 19.5 1018.3 2.0
23/02:00am ESE 11 18 - - - - 10 Cloudy - 19.5 1018.1 2.0
23/01:30am SE 11 20 - - - - 10 - - 19.5 1018.4 2.0
23/01:00am ESE 10 16 - - - - 10 Partly cloudy - 19.5 1018.6 2.0
23/12:30am ESE 11 18 - - - - 10 Partly cloudy - 19.3 1018.7 2.0
23/12:00am SE 11 21 - - - - 10 Partly cloudy - 19.4 1018.6 2.0
 
Date/Time
EST
Wind Sea
Height
m
Swell Vis
km
Cloud Weather Temp
°C
Press
MSL
hPa
Rain since
9am
mm
Dir  Spd
kts
Gust
kts
Height
m
Period
s
Dir
22/11:30pm SE 11 18 - - - - 10 Partly cloudy - 19.3 1018.9 2.0
22/11:00pm SE 14 21 - - - - 10 Cloudy - 19.6 1019.1 2.0
22/10:30pm SE 10 17 - - - - 10 Partly cloudy - 19.5 1019.5 2.0
22/10:00pm SE 12 21 - - - - 10 Partly cloudy - 19.4 1019.1 2.0
22/09:30pm SE 13 19 - - - - 10 Partly cloudy - 19.0 1019.3 2.0
22/09:00pm SE 12 19 - - - - 10 Partly cloudy - 19.2 1019.2 1.8
22/08:30pm E 12 17 - - - - 10 Partly cloudy - 18.5 1019.2 1.8
22/08:09pm ESE 11 19 - - - - 10 Partly cloudy - 18.3 1019.0 1.8
22/08:00pm SE 10 16 - - - - 7 Cloudy Showers 17.8 1018.9 1.8
22/07:53pm ESE 9 18 - - - - 6 Partly cloudy - 17.2 1019.1 1.8
22/07:41pm ESE 8 13 - - - - 10 Partly cloudy - 17.3 1018.9 1.2
22/07:30pm ESE 11 17 - - - - 5 Partly cloudy - 17.0 1019.0 1.2
22/07:12pm ESE 15 26 - - - - 5 Partly cloudy - 17.5 1019.0 0.6
22/07:11pm ESE 15 26 - - - - 7 Partly cloudy - 17.7 1019.0 0.6
22/07:00pm SE 13 21 - - - - 10 Partly cloudy - 19.5 1018.7 0.0
22/06:30pm SE 11 21 - - - - 10 Partly cloudy - 19.5 1018.4 0.0
22/06:00pm ESE 13 19 - - - - - Partly cloudy - 19.6 1018.2 0.0
22/05:30pm ESE 11 18 - - - - 10 Partly cloudy - 19.4 1018.0 0.0
22/05:00pm SE 12 19 - - - - 10 Mostly cloudy - 19.7 1017.5 0.0
22/04:30pm SE 14 21 - - - - 10 Partly cloudy - 19.7 1017.0 0.0
22/04:00pm SE 14 22 - - - - 10 Partly cloudy - 19.9 1016.9 0.0
22/03:30pm SE 12 19 - - - - 10 Partly cloudy - 20.1 1016.9 0.0
22/03:00pm SE 13 19 - - - - 10 Partly cloudy - 20.5 1017.0 0.0
22/02:30pm SE 12 17 - - - - 10 Partly cloudy - 20.8 1016.9 0.0
22/02:00pm SE 14 19 - - - - 10 Mostly clear - 21.1 1017.0 0.0
22/01:30pm SE 14 22 - - - - 10 Partly cloudy - 21.4 1016.8 0.0
22/01:00pm SE 11 16 - - - - 10 - - 21.6 1016.9 0.0
22/12:30pm SE 12 18 - - - - 10 - - 21.7 1017.1 0.0
22/12:00pm SE 13 20 - - - - 10 - - 22.0 1017.2 0.0
22/11:30am SE 13 21 - - - - 10 Partly cloudy - 21.7 1017.5 0.0
22/11:00am SE 14 19 - - - - 10 Mostly clear - 21.6 1018.0 0.0
22/10:30am ESE 12 18 - - - - 10 Partly cloudy - 21.4 1018.3 0.0
22/10:00am SE 13 19 - - - - 10 Partly cloudy - 22.0 1018.7 0.0
22/09:30am SE 13 18 - - - - - Partly cloudy - 21.6 1018.9 0.0
22/09:00am SE 13 21 - - - - 10 Partly cloudy - 21.4 1019.1 0.0
22/08:30am ESE 12 18 - - - - 10 Partly cloudy - 20.5 1019.0 0.0
22/08:00am SE 14 22 - - - - 10 Cloudy - 20.7 1019.0 0.0
22/07:30am SE 13 20 - - - - 10 Partly cloudy - 20.0 1018.9 0.0
22/07:00am SE 13 20 - - - - 10 Partly cloudy - 20.2 1018.5 0.0
22/06:30am ESE 13 23 - - - - 10 Partly cloudy - 20.2 1018.0 0.0
22/06:00am SE 13 20 - - - - 10 Partly cloudy - 19.9 1017.5 0.0
22/05:30am SE 13 22 - - - - 10 Partly cloudy - 19.6 1016.8 0.0
22/05:00am SE 14 24 - - - - 10 Cloudy - 19.7 1016.6 0.0
22/04:30am SE 15 24 - - - - 10 Cloudy - 19.8 1016.2 0.0
22/04:00am SE 12 21 - - - - 10 Partly cloudy - 19.6 1016.0 0.0
22/03:30am E 9 14 - - - - 10 Partly cloudy - 18.7 1015.9 0.0
22/03:00am ESE 11 18 - - - - 10 Partly cloudy - 19.5 1015.6 0.0
22/02:30am SE 13 21 - - - - 10 Partly cloudy - 19.4 1015.7 0.0
22/02:00am SE 13 20 - - - - 10 Partly cloudy - 19.7 1015.6 0.0
22/01:30am SE 12 17 - - - - 10 Partly cloudy - 19.6 1015.8 0.0
22/01:00am SE 13 19 - - - - 10 Partly cloudy - 19.9 1016.2 0.0
22/12:30am SE 13 19 - - - - 10 Partly cloudy - 20.0 1016.5 0.0
22/12:00am SE 15 22 - - - - 10 Partly cloudy - 19.9 1016.9 0.0
 
Date/Time
EST
Wind Sea
Height
m
Swell Vis
km
Cloud Weather Temp
°C
Press
MSL
hPa
Rain since
9am
mm
Dir  Spd
kts
Gust
kts
Height
m
Period
s
Dir
21/11:30pm SE 12 19 - - - - 10 Partly cloudy - 20.1 1017.2 0.0
21/11:00pm SE 12 18 - - - - 10 Cloudy - 19.9 1017.1 0.0
21/10:30pm SE 14 20 - - - - 10 Partly cloudy - 20.1 1017.0 0.0
21/10:00pm SE 12 20 - - - - 10 Partly cloudy - 20.2 1016.9 0.0
21/09:30pm SE 12 20 - - - - 10 Partly cloudy - 20.2 1017.0 0.0
21/09:00pm SE 12 19 - - - - 10 Partly cloudy - 20.3 1016.9 0.0
21/08:30pm SE 13 19 - - - - 10 Partly cloudy - 20.3 1017.0 0.0
21/08:00pm SE 14 22 - - - - 10 Cloudy - 20.4 1016.9 0.0
21/07:30pm SE 13 22 - - - - 10 Partly cloudy - 20.4 1016.9 0.0
21/07:00pm SE 14 21 - - - - 10 Partly cloudy - 20.4 1016.9 0.0
21/06:30pm SE 13 20 - - - - 10 Partly cloudy - 20.3 1017.1 0.0
21/06:00pm SE 15 20 - - - - 10 Partly cloudy - 20.5 1016.8 0.0
21/05:30pm SE 13 18 - - - - 10 Partly cloudy - 20.6 1016.4 0.0
21/05:00pm SE 13 18 - - - - 10 Cloudy - 20.5 1015.7 0.0
21/04:30pm SE 13 18 - - - - 10 Partly cloudy - 20.6 1015.5 0.0
21/04:00pm SE 12 18 - - - - 10 Partly cloudy - 20.6 1015.3 0.0
21/03:30pm SE 11 16 - - - - 10 Partly cloudy - 20.8 1014.9 0.0
21/03:00pm SE 10 16 - - - - 10 Partly cloudy - 20.8 1014.6 0.0
21/02:30pm SE 11 17 - - - - 10 Partly cloudy - 21.0 1014.9 0.0
21/02:00pm SE 11 15 - - - - 10 Cloudy - 21.2 1015.1 0.0
21/01:30pm SE 9 17 - - - - 10 Partly cloudy - 21.5 1015.0 0.0
21/01:00pm SSE 11 15 - - - - 10 Partly cloudy - 21.7 1014.6 0.0
21/12:30pm SSE 10 14 - - - - 10 Partly cloudy - 21.6 1015.2 0.0
21/12:00pm S 10 14 - - - - 10 Partly cloudy - 21.7 1015.8 0.0
21/11:30am S 10 15 - - - - 10 Partly cloudy - 21.8 1015.9 0.0
21/11:00am S 9 14 - - - - 10 Mostly cloudy - 21.8 1016.4 0.0
21/10:30am S 10 15 - - - - 10 Partly cloudy - 21.6 1016.8 0.0
21/10:00am S 11 14 - - - - 10 Partly cloudy - 22.0 1017.0 0.0
21/09:30am S 9 14 - - - - 10 Partly cloudy - 21.6 1017.0 0.0
21/09:00am S 11 15 - - - - 10 Partly cloudy - 21.3 1017.3 0.0
21/08:30am S 11 15 - - - - 10 Partly cloudy - 21.3 1017.2 0.0
21/08:00am S 8 14 - - - - 10 Cloudy - 21.2 1017.3 0.0
21/07:30am S 9 12 - - - - 10 Partly cloudy - 21.2 1017.1 0.0
21/07:00am SSW 9 15 - - - - 10 Partly cloudy - 21.1 1016.9 0.0
21/06:30am SSW 13 18 - - - - 10 Partly cloudy - 20.9 1016.5 0.0
21/06:00am SSW 9 13 - - - - 10 Partly cloudy - 20.7 1015.8 0.0
21/05:30am SSW 11 16 - - - - 10 Partly cloudy - 20.6 1015.3 0.0
21/05:00am SSW 10 15 - - - - 10 Cloudy - 20.6 1015.3 0.0
21/04:30am SSW 10 14 - - - - 10 Partly cloudy - 20.6 1014.9 0.0
21/04:00am SSW 11 15 - - - - 10 Partly cloudy - 20.7 1014.7 0.0
21/03:30am SSW 11 17 - - - - 10 Partly cloudy - 20.7 1014.4 0.0
21/03:00am SSW 9 13 - - - - 10 Partly cloudy - 20.7 1014.3 0.0
21/02:30am SSW 8 10 - - - - 10 Partly cloudy - 20.8 1014.6 0.0
21/02:00am SSW 8 10 - - - - 10 Cloudy - 20.8 1014.6 0.0
21/01:30am SW 9 13 - - - - 10 Partly cloudy - 20.9 1015.0 0.0
21/01:00am SSW 7 9 - - - - 10 Partly cloudy - 21.0 1015.1 0.0
21/12:30am SSW 8 12 - - - - 10 Partly cloudy - 20.9 1015.4 0.0
21/12:00am SSW 5 7 - - - - 10 Partly cloudy - 20.8 1015.6 0.0
 
Date/Time
EST
Wind Sea
Height
m
Swell Vis
km
Cloud Weather Temp
°C
Press
MSL
hPa
Rain since
9am
mm
Dir  Spd
kts
Gust
kts
Height
m
Period
s
Dir
20/11:30pm SSW 7 10 - - - - 10 Partly cloudy - 21.0 1016.2 0.0
20/11:00pm SW 4 6 - - - - 10 Mostly cloudy - 20.9 1016.2 0.0
20/10:30pm SSW 6 9 - - - - 10 Cloudy - 21.1 1016.2 0.0
20/10:00pm SSW 7 12 - - - - 10 Cloudy - 21.1 1016.4 0.0
20/09:30pm SSW 6 8 - - - - 10 Partly cloudy - 21.0 1016.4 0.0
20/09:00pm SSW 7 9 - - - - 10 Partly cloudy - 21.1 1016.5 0.0
20/08:30pm SSW 7 8 - - - - 10 Partly cloudy - 21.1 1016.7 0.0
20/08:00pm SSW 9 11 - - - - 10 Cloudy - 21.1 1015.8 0.0
20/07:30pm SSW 7 10 - - - - 10 Partly cloudy - 21.1 1016.1 0.0
20/07:00pm SSW 7 10 - - - - 10 Partly cloudy - 21.0 1016.1 0.0
20/06:30pm SSW 7 10 - - - - 10 Partly cloudy - 21.0 1015.6 0.0
20/06:00pm SSW 8 11 - - - - 10 Partly cloudy - 21.1 1015.4 0.0
20/05:30pm SSW 9 12 - - - - 10 - - 21.2 1014.9 0.0
20/05:00pm SSW 8 11 - - - - 10 Cloudy - 21.2 1014.6 0.0
20/04:30pm SSW 6 8 - - - - 10 Partly cloudy - 21.2 1014.4 0.0
20/04:00pm SSW 7 9 - - - - 10 Partly cloudy - 21.5 1014.5 0.0
20/03:30pm SSW 8 11 - - - - 10 Partly cloudy - 21.7 1014.0 0.0
20/03:00pm SSW 7 11 - - - - 10 Partly cloudy - 21.9 1013.9 0.0
20/02:30pm SSW 7 9 - - - - 10 Partly cloudy - 22.2 1014.0 0.0
20/02:27pm SSW 7 9 - - - - 10 Partly cloudy - 22.1 1014.0 0.0
20/02:00pm SSW 8 12 - - - - 10 Mostly cloudy - 22.4 1013.8 0.0
20/01:30pm SSW 9 12 - - - - 10 Partly cloudy - 22.1 1013.7 0.0
20/01:00pm S 9 13 - - - - 10 Partly cloudy - 22.3 1013.6 0.0
20/12:30pm SW 9 12 - - - - 10 Partly cloudy - 22.6 1013.7 0.0
20/12:10pm SW 8 11 - - - - 10 Partly cloudy - 23.2 1014.1 0.0
20/12:00pm SW 8 11 - - - - 10 Partly cloudy - 23.0 1014.2 0.0
20/11:30am WSW 7 9 - - - - 10 Partly cloudy - 22.6 1014.3 0.0
20/11:26am SW 7 10 - - - - 10 Partly cloudy - 22.4 1014.4 0.0
20/11:00am SW 12 16 - - - - 10 Cloudy - 22.9 1014.7 0.0
20/10:49am SW 12 16 - - - - 10 Partly cloudy - 23.3 1014.9 0.0
20/10:41am WSW 12 16 - - - - 10 Partly cloudy - 22.9 1014.8 0.0
20/10:30am W 10 14 - - - - 10 Partly cloudy - 24.1 1014.7 0.0
20/10:00am W 9 13 - - - - 10 Partly cloudy - 23.9 1015.0 0.0
20/09:39am W 9 13 - - - - 10 Partly cloudy - 23.9 1015.1 0.0
20/09:30am W 9 13 - - - - 10 Partly cloudy - 23.6 1015.2 0.0
20/09:20am W 8 11 - - - - 10 Partly cloudy - 23.7 1015.1 0.0
20/09:00am W 8 10 - - - - 10 Partly cloudy - 23.1 1015.2 0.0
20/08:35am WSW 8 10 - - - - 10 Partly cloudy - 23.0 1015.1 0.0
20/08:30am WSW 8 10 - - - - 10 Partly cloudy - 22.9 1015.1 0.0
20/08:05am WSW 8 10 - - - - 10 Partly cloudy - 22.4 1015.2 0.0
20/08:00am WSW 8 10 - - - - 10 Cloudy - 22.3 1015.2 -
20/07:30am W 7 9 - - - - 10 Partly cloudy - 22.3 1015.1 -
20/07:14am W 7 9 - - - - 10 Partly cloudy - 22.1 1015.0 -
20/07:00am WSW 7 9 - - - - 10 Partly cloudy - 21.6 1014.7 -

Other formats

Comma delimited format used in spreadsheet applications
http://www.bom.gov.au/fwo/IDN60701/IDN60701.94996.axf

JavaScript Object Notation format (JSON) in row-major order
http://www.bom.gov.au/fwo/IDN60701/IDN60701.94996.json

Data quality

Most of these data are generated automatically and are frequently updated. Quality checks on data are not normally performed. It is possible for incorrect values to appear. Refer to information at About Latest Weather Observations and please check the disclaimer before using these data.